Time;durP1;ratioP1;P1;durP2;ratioP2;P2;SDS_P1;SDS_P2;PMS_P1;PMS_P2;Temp;Humidity;BMP_temperature;BMP_pressure;BME280_temperature;BME280_humidity;BME280_pressure;Samples;Min_cycle;Max_cycle;Signal;HPM_P1;HPM_P2
2024/02/14 00:00:13;;;;;;;694.33;309.90;;;;;;;21.33;38.02;101266.69;4999507;28;20037;-87
2024/02/14 00:02:49;;;;;;;708.85;314.95;;;;;;;21.31;38.19;101266.06;5017068;28;20057;-87
2024/02/14 00:05:15;;;;;;;711.38;316.30;;;;;;;21.33;38.00;101270.19;5020982;28;20121;-87
2024/02/14 00:07:40;;;;;;;705.35;314.63;;;;;;;21.27;38.21;101256.84;5024519;28;20466;-87
2024/02/14 00:10:06;;;;;;;710.35;316.45;;;;;;;21.38;38.32;101267.00;5022135;28;20029;-87
2024/02/14 00:12:36;;;;;;;703.45;314.35;;;;;;;21.26;38.31;101250.72;5022848;28;20037;-87
2024/02/14 00:15:07;;;;;;;;;;;;;;;21.32;38.16;101262.41;5001629;28;20126;-86
2024/02/14 00:17:35;;;;;;;710.92;316.48;;;;;;;21.14;38.03;101236.22;5017085;28;20364;-87
2024/02/14 00:20:02;;;;;;;715.85;318.38;;;;;;;21.31;38.20;101256.28;5019500;28;20697;-88
2024/02/14 00:22:28;;;;;;;718.33;319.30;;;;;;;21.31;37.86;101258.13;5004749;28;20061;-87
2024/02/14 00:24:54;;;;;;;714.38;319.60;;;;;;;21.26;38.19;101250.72;5018766;28;20992;-87
2024/02/14 00:27:19;;;;;;;721.25;322.17;;;;;;;21.23;38.00;101240.44;5021794;28;20033;-87
2024/02/14 00:29:46;;;;;;;724.10;323.33;;;;;;;21.28;38.20;101247.88;5008438;28;20555;-87
2024/02/14 00:32:15;;;;;;;729.72;324.77;;;;;;;21.20;38.27;101232.03;5024616;28;20457;-86
2024/02/14 00:34:41;;;;;;;748.03;332.63;;;;;;;21.13;38.02;101210.72;5025371;28;20542;-87
2024/02/14 00:37:06;;;;;;;743.15;331.55;;;;;;;20.96;38.03;101186.22;5021844;28;20033;-86
2024/02/14 00:39:32;;;;;;;740.90;329.83;;;;;;;20.80;38.14;101162.53;5024339;28;20037;-86
2024/02/14 00:41:57;;;;;;;753.65;336.13;;;;;;;21.09;38.10;101207.63;5022841;28;20054;-87
2024/02/14 00:44:23;;;;;;;749.70;333.63;;;;;;;21.01;38.14;101191.00;5004857;28;20041;-88
2024/02/14 00:46:49;;;;;;;753.30;335.38;;;;;;;20.91;38.22;101156.00;5008036;28;20044;-87
2024/02/14 00:49:15;;;;;;;756.05;337.67;;;;;;;21.19;38.08;101206.56;5024124;28;20037;-89
2024/02/14 00:51:41;;;;;;;749.88;335.00;;;;;;;21.09;38.27;101194.38;5022614;28;20061;-87
2024/02/14 00:54:07;;;;;;;754.65;340.05;;;;;;;21.12;38.31;101198.50;5014069;28;20036;-88
2024/02/14 00:56:33;;;;;;;754.05;341.70;;;;;;;21.17;38.30;101204.06;5024305;28;20048;-87
2024/02/14 00:58:59;;;;;;;749.70;340.60;;;;;;;20.93;38.04;101159.28;5021622;28;20544;-87
2024/02/14 01:01:25;;;;;;;749.55;340.08;;;;;;;21.07;38.26;101185.78;5008337;28;20044;-87
2024/02/14 01:03:51;;;;;;;752.42;343.30;;;;;;;21.08;38.40;101187.44;5023510;28;20041;-88
2024/02/14 01:06:16;;;;;;;775.85;352.15;;;;;;;20.96;38.17;101165.03;5016898;28;20044;-87
2024/02/14 01:08:42;;;;;;;764.47;343.45;;;;;;;21.12;38.19;101179.97;5003011;28;20041;-88
2024/02/14 01:11:08;;;;;;;772.83;343.90;;;;;;;21.12;38.11;101172.84;5034994;28;20090;-88
2024/02/14 01:13:34;;;;;;;769.38;342.15;;;;;;;20.99;38.31;101153.25;5020486;28;20065;-88
2024/02/14 01:15:59;;;;;;;762.55;339.52;;;;;;;21.05;38.13;101161.31;5004047;28;20073;-88
2024/02/14 01:18:25;;;;;;;762.85;340.40;;;;;;;20.93;38.49;101138.09;4993373;28;20033;-84
2024/02/14 01:20:51;;;;;;;766.60;341.42;;;;;;;21.08;38.25;101157.50;5023845;28;20053;-84
2024/02/14 01:23:16;;;;;;;763.55;341.08;;;;;;;20.97;38.16;101142.03;5026767;28;20044;-88
2024/02/14 01:25:45;;;;;;;777.58;346.13;;;;;;;20.94;38.42;101137.91;5012917;28;20556;-88
2024/02/14 01:28:10;;;;;;;780.15;348.10;;;;;;;21.07;38.25;101153.19;5007120;28;20041;-88
2024/02/14 01:30:36;;;;;;;779.83;348.20;;;;;;;20.97;38.25;101144.69;5024664;28;20025;-87
2024/02/14 01:33:03;;;;;;;779.50;348.90;;;;;;;21.01;38.26;101138.03;5022019;28;20045;-88
2024/02/14 01:35:32;;;;;;;781.28;349.83;;;;;;;20.89;38.20;101123.59;5024204;28;20056;-89
2024/02/14 01:37:58;;;;;;;772.53;346.88;;;;;;;20.98;38.22;101127.78;4987280;28;20490;-90
2024/02/14 01:40:23;;;;;;;767.65;344.90;;;;;;;20.90;38.34;101126.06;4991266;28;20072;-90
2024/02/14 01:42:49;;;;;;;767.92;344.17;;;;;;;20.94;38.45;101126.50;4993852;28;20417;-89
2024/02/14 01:45:15;;;;;;;769.13;349.55;;;;;;;20.64;38.37;101083.25;5020716;28;20470;-88
2024/02/14 01:47:41;;;;;;;804.28;361.90;;;;;;;20.95;38.36;101125.50;5025530;28;20030;-88
2024/02/14 01:50:11;;;;;;;811.40;363.92;;;;;;;20.81;38.46;101111.22;5023591;28;20064;-88
2024/02/14 01:52:38;;;;;;;;;;;;;;;20.96;38.45;101135.09;5001526;28;20045;-87
2024/02/14 01:55:05;;;;;;;815.20;365.42;;;;;;;20.88;38.32;101114.81;5018836;28;20420;-88
2024/02/14 01:57:32;;;;;;;814.83;367.60;;;;;;;20.88;38.35;101114.81;5023008;28;20165;-88
2024/02/14 01:59:59;;;;;;;821.55;370.17;;;;;;;20.84;38.29;101110.91;4999131;28;20042;-89
2024/02/14 02:02:26;;;;;;;833.22;374.90;;;;;;;20.92;38.56;101125.88;5018528;28;20049;-89
2024/02/14 02:04:52;;;;;;;819.75;367.83;;;;;;;20.83;38.35;101106.59;5023959;28;20041;-89
2024/02/14 02:07:19;;;;;;;825.97;371.55;;;;;;;20.92;38.40;101123.22;5023385;28;20059;-88
2024/02/14 02:09:46;;;;;;;821.65;369.35;;;;;;;20.91;38.61;101125.03;5023857;28;20037;-88
2024/02/14 02:12:11;;;;;;;824.47;370.48;;;;;;;20.85;38.31;101106.44;5022200;28;21005;-88
2024/02/14 02:14:37;;;;;;;813.35;365.65;;;;;;;20.79;38.40;101094.72;5005998;28;20038;-88
2024/02/14 02:17:07;;;;;;;806.47;364.17;;;;;;;20.89;38.37;101105.06;5018033;28;20044;-88
2024/02/14 02:19:33;;;;;;;803.97;361.48;;;;;;;20.80;38.46;101099.81;5022879;28;20516;-88
2024/02/14 02:22:00;;;;;;;798.72;359.05;;;;;;;20.84;38.45;101102.97;5023514;28;20057;-89
2024/02/14 02:24:26;;;;;;;791.90;357.10;;;;;;;20.77;38.46;101089.59;5022352;28;20033;-88
2024/02/14 02:26:51;;;;;;;786.60;354.52;;;;;;;20.75;38.47;101080.19;5020948;28;20042;-87
2024/02/14 02:29:19;;;;;;;792.00;356.67;;;;;;;20.69;38.48;101076.47;4997436;28;20412;-87
2024/02/14 02:31:46;;;;;;;788.55;355.50;;;;;;;20.81;38.73;101090.88;5003213;28;20053;-88
2024/02/14 02:34:11;;;;;;;798.10;360.00;;;;;;;20.65;38.56;101061.13;5005768;28;20045;-88
2024/02/14 02:36:37;;;;;;;803.38;363.35;;;;;;;20.84;38.49;101089.72;5022383;28;20034;-88
2024/02/14 02:39:04;;;;;;;807.88;364.92;;;;;;;20.67;38.44;101067.06;5017771;28;20045;-88
2024/02/14 02:41:31;;;;;;;815.58;369.02;;;;;;;20.72;38.52;101076.09;5020058;28;20048;-87
2024/02/14 02:43:57;;;;;;;815.65;368.45;;;;;;;20.80;38.65;101083.13;5017184;28;20037;-87
2024/02/14 02:46:23;;;;;;;820.58;371.52;;;;;;;20.75;38.57;101073.09;5021035;28;20730;-88
2024/02/14 02:48:49;;;;;;;834.22;375.35;;;;;;;20.75;38.63;101078.38;5021443;28;20187;-88
2024/02/14 02:51:17;;;;;;;820.28;370.05;;;;;;;20.77;38.45;101080.84;5024076;28;20037;-87
2024/02/14 02:53:43;;;;;;;819.53;369.60;;;;;;;20.69;38.65;101065.03;5006561;28;20060;-87
2024/02/14 02:56:09;;;;;;;813.35;366.00;;;;;;;20.73;38.55;101067.16;5008214;28;20037;-87
2024/02/14 02:58:34;;;;;;;808.78;365.02;;;;;;;20.77;38.46;101081.66;4994167;28;20770;-87
2024/02/14 03:01:00;;;;;;;809.08;365.17;;;;;;;20.66;38.58;101058.28;5020332;28;20682;-89
2024/02/14 03:03:27;;;;;;;797.33;360.17;;;;;;;20.65;38.72;101061.13;5023304;28;20056;-86
2024/02/14 03:05:55;;;;;;;804.00;362.92;;;;;;;20.74;38.77;101070.63;5021314;28;20394;-87
2024/02/14 03:08:21;;;;;;;821.22;372.27;;;;;;;20.58;38.57;101047.75;5022081;28;20140;-86
2024/02/14 03:10:47;;;;;;;825.53;372.67;;;;;;;20.42;38.63;101019.63;4993005;28;20037;-86
2024/02/14 03:13:12;;;;;;;835.83;377.52;;;;;;;20.53;38.60;101036.91;5019803;28;20091;-87
2024/02/14 03:15:38;;;;;;;818.97;369.27;;;;;;;20.70;38.79;101064.03;5018830;28;20046;-87
2024/02/14 03:18:09;;;;;;;840.08;378.48;;;;;;;20.68;38.72;101066.06;5015322;28;20104;-86
2024/02/14 03:20:35;;;;;;;835.03;377.75;;;;;;;20.70;38.52;101067.50;5018528;28;20033;-87
2024/02/14 03:23:03;;;;;;;841.10;379.80;;;;;;;20.65;38.71;101056.66;5023009;28;20107;-87
2024/02/14 03:25:29;;;;;;;841.58;379.85;;;;;;;20.69;38.72;101062.41;5020991;28;20041;-87
2024/02/14 03:27:57;;;;;;;840.97;380.13;;;;;;;20.54;38.87;101043.03;5020248;28;20041;-86
2024/02/14 03:30:22;;;;;;;832.28;375.25;;;;;;;20.69;38.84;101067.69;5041744;28;20029;-87
2024/02/14 03:32:49;;;;;;;845.80;382.83;;;;;;;20.59;38.63;101054.69;5021712;28;20108;-86
2024/02/14 03:35:15;;;;;;;843.95;382.02;;;;;;;20.66;38.59;101066.22;5006526;28;20110;-87
2024/02/14 03:37:41;;;;;;;810.17;366.77;;;;;;;20.65;38.72;101061.94;5020547;28;20718;-87
2024/02/14 03:40:07;;;;;;;811.42;367.85;;;;;;;20.65;38.64;101066.41;5019349;28;20160;-86
2024/02/14 03:42:34;;;;;;;828.30;373.55;;;;;;;20.54;38.65;101043.03;5005914;28;20041;-87
2024/02/14 03:45:05;;;;;;;841.70;378.75;;;;;;;20.42;38.71;101030.22;5007521;28;20041;-87
2024/02/14 03:47:34;;;;;;;838.35;379.10;;;;;;;20.65;38.55;101063.78;4989263;28;20053;-88
2024/02/14 03:50:01;;;;;;;835.47;377.70;;;;;;;20.56;38.74;101054.25;4987533;28;20057;-88
2024/02/14 03:52:27;;;;;;;847.90;382.40;;;;;;;20.52;38.45;101037.91;5003997;28;20041;-87
2024/02/14 03:54:52;;;;;;;849.13;383.42;;;;;;;20.45;38.62;101021.91;5012968;28;20068;-88
2024/02/14 03:57:18;;;;;;;853.80;383.85;;;;;;;20.57;38.43;101054.06;5003219;28;20041;-89
2024/02/14 03:59:44;;;;;;;851.13;383.35;;;;;;;20.48;38.88;101026.06;5005543;28;20034;-87
2024/02/14 04:02:10;;;;;;;852.53;382.77;;;;;;;20.66;38.65;101060.94;5000426;28;20056;-90
2024/02/14 04:04:41;;;;;;;849.95;382.85;;;;;;;20.50;38.81;101029.34;5024465;28;20049;-90
2024/02/14 04:07:10;;;;;;;839.85;378.48;;;;;;;20.65;38.82;101053.19;5025293;28;20033;-90
2024/02/14 04:09:36;;;;;;;843.50;380.52;;;;;;;20.60;38.88;101059.00;4999862;28;20049;-90
2024/02/14 04:12:01;;;;;;;839.30;378.65;;;;;;;20.55;38.62;101042.84;5025866;28;20119;-91
2024/02/14 04:14:27;;;;;;;842.38;380.48;;;;;;;20.43;38.75;101031.84;5024987;28;20095;-89
2024/02/14 04:16:52;;;;;;;846.85;382.23;;;;;;;20.31;38.87;101006.81;5023462;28;20042;-90
2024/02/14 04:19:18;;;;;;;850.90;382.67;;;;;;;20.65;38.79;101058.47;5022251;28;20046;-88
2024/02/14 04:21:44;;;;;;;847.40;381.70;;;;;;;20.25;38.60;100999.56;5012499;28;20077;-88
2024/02/14 04:24:10;;;;;;;859.35;387.23;;;;;;;20.64;38.61;101073.50;5024355;28;20076;-89
2024/02/14 04:26:35;;;;;;;870.55;391.25;;;;;;;20.33;38.92;101018.03;5024516;28;20126;-89
2024/02/14 04:29:02;;;;;;;874.80;393.30;;;;;;;20.29;38.89;101019.41;5009979;28;20110;-89
2024/02/14 04:31:29;;;;;;;921.13;424.40;;;;;;;20.57;38.89;101066.47;5024599;28;20094;-89
2024/02/14 04:33:55;;;;;;;937.08;430.52;;;;;;;20.55;38.66;101056.06;4990582;28;20041;-89
2024/02/14 04:36:22;;;;;;;945.65;436.40;;;;;;;20.49;38.66;101044.38;5022910;28;20088;-89
2024/02/14 04:38:49;;;;;;;943.22;433.20;;;;;;;20.64;38.67;101068.22;5018085;28;20104;-89
2024/02/14 04:41:15;;;;;;;940.55;431.65;;;;;;;20.49;38.85;101048.84;5006031;28;20037;-89
2024/02/14 04:43:41;;;;;;;919.70;420.55;;;;;;;20.23;38.66;101018.28;5006373;28;20041;-89
2024/02/14 04:46:08;;;;;;;912.00;416.10;;;;;;;20.63;38.99;101077.16;5023788;28;20037;-89
2024/02/14 04:48:37;;;;;;;912.30;416.48;;;;;;;20.64;38.91;101080.63;5021400;28;20362;-88
2024/02/14 04:51:04;;;;;;;904.78;412.50;;;;;;;20.64;38.91;101077.97;5024253;28;20041;-88
2024/02/14 04:53:30;;;;;;;933.20;433.08;;;;;;;20.57;38.85;101069.13;5020277;28;20056;-88
2024/02/14 04:55:56;;;;;;;931.15;430.42;;;;;;;20.64;38.97;101078.78;5005326;28;20125;-89
2024/02/14 04:58:22;;;;;;;929.47;426.63;;;;;;;20.57;38.91;101079.69;5021381;28;20488;-88
2024/02/14 05:00:48;;;;;;;927.47;423.05;;;;;;;20.62;38.88;101088.72;5023164;28;20053;-90
2024/02/14 05:03:14;;;;;;;910.25;415.20;;;;;;;20.55;38.88;101069.28;5017149;28;20120;-90
2024/02/14 05:05:39;;;;;;;922.15;419.95;;;;;;;20.57;38.65;101077.88;5004273;28;20330;-89
2024/02/14 05:08:05;;;;;;;913.17;416.63;;;;;;;20.55;38.91;101079.88;5009742;28;20103;-90
2024/02/14 05:10:31;;;;;;;900.88;409.77;;;;;;;20.34;38.78;101051.41;5008179;28;20037;-90
2024/02/14 05:12:57;;;;;;;919.65;424.90;;;;;;;20.52;38.98;101083.72;5022650;28;20426;-90
2024/02/14 05:15:23;;;;;;;947.38;438.08;;;;;;;20.61;39.01;101089.75;5023836;28;20033;-90
2024/02/14 05:17:49;;;;;;;958.58;443.70;;;;;;;20.41;39.07;101065.59;5024586;28;20048;-89
2024/02/14 05:20:16;;;;;;;972.42;451.50;;;;;;;20.59;39.10;101099.69;4992239;28;20045;-89
2024/02/14 05:22:42;;;;;;;966.60;449.73;;;;;;;20.60;38.85;101093.38;5001711;28;20056;-90
2024/02/14 05:25:08;;;;;;;954.35;442.55;;;;;;;20.59;38.69;101106.78;5023866;28;20056;-89
2024/02/14 05:27:35;;;;;;;946.60;438.35;;;;;;;20.52;39.12;101107.53;4997656;28;20045;-89
2024/02/14 05:30:09;;;;;;;936.75;432.60;;;;;;;20.51;39.03;101105.88;5021768;28;20041;-90
2024/02/14 05:32:34;;;;;;;902.67;417.48;;;;;;;20.54;39.04;101115.28;5025263;28;20781;-89
2024/02/14 05:35:01;;;;;;;924.08;425.60;;;;;;;20.52;39.09;101118.09;5002910;28;20048;-89
2024/02/14 05:37:27;;;;;;;925.45;427.05;;;;;;;20.49;39.03;101109.69;5024896;28;20041;-89
2024/02/14 05:39:56;;;;;;;929.50;428.60;;;;;;;20.37;38.96;101093.38;5019886;28;20433;-90
2024/02/14 05:42:22;;;;;;;920.72;424.02;;;;;;;20.23;38.98;101065.03;4988659;28;20489;-88
2024/02/14 05:44:47;;;;;;;915.20;420.58;;;;;;;20.46;39.05;101105.56;5016738;28;20045;-89
2024/02/14 05:47:13;;;;;;;915.20;421.52;;;;;;;20.39;38.86;101101.97;5024235;28;20056;-89
2024/02/14 05:49:40;;;;;;;923.50;425.45;;;;;;;20.51;39.25;101124.38;5025727;28;20029;-88
2024/02/14 05:52:06;;;;;;;919.75;422.52;;;;;;;20.33;39.04;101102.66;5021286;28;20034;-88
2024/02/14 05:54:32;;;;;;;929.42;428.63;;;;;;;20.33;39.05;101110.59;5024935;28;20037;-87
2024/02/14 05:56:57;;;;;;;931.17;429.23;;;;;;;20.15;39.10;101067.75;5005332;28;20118;-87
2024/02/14 05:59:23;;;;;;;940.22;431.88;;;;;;;20.47;39.24;101124.94;5025085;28;20038;-88
2024/02/14 06:01:49;;;;;;;938.63;432.52;;;;;;;20.14;39.20;101074.06;5034244;28;20041;-87
2024/02/14 06:04:15;;;;;;;933.20;429.33;;;;;;;20.39;39.35;101120.47;5021693;28;20037;-87
2024/02/14 06:06:40;;;;;;;940.97;432.88;;;;;;;20.10;39.38;101076.19;5022338;28;20102;-88
2024/02/14 06:09:09;;;;;;;941.08;432.85;;;;;;;20.29;39.37;101106.69;5018928;28;20048;-88
2024/02/14 06:11:38;;;;;;;933.30;432.17;;;;;;;20.39;39.32;101123.13;5008278;28;20516;-88
2024/02/14 06:14:07;;;;;;;943.30;435.77;;;;;;;20.39;39.28;101124.94;5020505;28;20041;-89
2024/02/14 06:16:33;;;;;;;952.22;438.73;;;;;;;20.48;39.26;101139.81;4993327;28;20073;-88
2024/02/14 06:18:59;;;;;;;950.33;437.58;;;;;;;20.23;39.50;101104.72;5019173;28;20448;-88
2024/02/14 06:21:25;;;;;;;955.78;443.10;;;;;;;20.40;39.42;101135.34;5005717;28;20046;-88
2024/02/14 06:23:51;;;;;;;954.58;444.20;;;;;;;20.42;39.37;101143.13;5023010;28;20854;-87
2024/02/14 06:26:17;;;;;;;958.60;445.42;;;;;;;20.52;39.39;101159.59;5020701;28;20049;-87
2024/02/14 06:28:44;;;;;;;963.40;446.95;;;;;;;20.39;39.52;101146.91;5005537;28;20033;-87
2024/02/14 06:31:09;;;;;;;960.58;447.77;;;;;;;20.43;39.56;101147.41;5025564;28;20033;-89
2024/02/14 06:33:36;;;;;;;978.63;454.92;;;;;;;20.46;39.44;101161.09;5003942;28;20056;-88
2024/02/14 06:36:02;;;;;;;987.58;459.10;;;;;;;19.99;39.41;101084.53;5023907;28;20041;-88
2024/02/14 06:38:27;;;;;;;986.63;457.55;;;;;;;20.41;39.54;101154.72;5023309;28;20046;-88
2024/02/14 06:40:53;;;;;;;993.35;457.30;;;;;;;20.37;39.45;101145.47;5023106;28;20489;-88
2024/02/14 06:43:19;;;;;;;1000.03;462.77;;;;;;;20.10;39.58;101115.03;5008231;28;20041;-88
2024/02/14 06:45:45;;;;;;;991.58;456.73;;;;;;;20.47;39.52;101180.47;5021788;28;20102;-88
2024/02/14 06:48:10;;;;;;;976.70;449.48;;;;;;;20.17;39.67;101130.03;5024999;28;20037;-88
2024/02/14 06:50:36;;;;;;;981.45;451.17;;;;;;;20.52;39.62;101188.72;5007043;28;20042;-88
2024/02/14 06:53:02;;;;;;;978.70;449.73;;;;;;;20.03;39.99;101111.44;5002996;28;20041;-88
2024/02/14 06:55:28;;;;;;;974.05;446.27;;;;;;;20.33;39.61;101154.75;5018725;28;20034;-89
2024/02/14 06:57:54;;;;;;;976.53;446.75;;;;;;;20.47;39.58;101193.72;5006283;28;20141;-89
2024/02/14 07:00:20;;;;;;;992.90;452.58;;;;;;;20.45;39.68;101201.78;5019507;28;20046;-88
2024/02/14 07:02:48;;;;;;;987.88;453.60;;;;;;;20.35;39.57;101182.66;5009363;28;20382;-88
2024/02/14 07:05:14;;;;;;;984.10;450.73;;;;;;;20.45;39.66;101208.91;5010230;28;20741;-89
2024/02/14 07:07:40;;;;;;;963.35;438.58;;;;;;;20.26;39.46;101174.94;4989557;28;20033;-88
2024/02/14 07:10:07;;;;;;;967.08;441.38;;;;;;;20.57;39.38;101212.81;5018923;28;20034;-89
2024/02/14 07:12:33;;;;;;;977.47;455.17;;;;;;;21.00;38.39;101197.25;5021725;28;20049;-89
2024/02/14 07:14:58;;;;;;;1064.88;504.23;;;;;;;21.63;37.51;101209.28;4987512;28;20128;-89
2024/02/14 07:17:24;;;;;;;1043.40;494.88;;;;;;;21.98;36.79;101221.81;5000780;28;20102;-88
2024/02/14 07:19:49;;;;;;;1064.15;501.98;;;;;;;21.74;37.17;101184.16;5016221;28;20041;-87
2024/02/14 07:22:18;;;;;;;1074.93;508.13;;;;;;;21.95;37.04;101237.28;5022437;28;20057;-90
2024/02/14 07:24:45;;;;;;;1072.30;505.67;;;;;;;21.87;37.60;101237.34;5019526;28;20056;-88
2024/02/14 07:27:12;;;;;;;1094.38;517.33;;;;;;;21.72;37.88;101237.34;5002289;28;20041;-86
2024/02/14 07:29:37;;;;;;;1105.22;524.95;;;;;;;21.56;37.99;101242.84;5022652;28;20144;-85
2024/02/14 07:32:03;;;;;;;1089.38;516.30;;;;;;;21.28;38.03;101218.75;5021392;28;20817;-84
2024/02/14 07:34:29;;;;;;;1086.80;514.80;;;;;;;21.38;38.65;101237.88;5003888;28;20061;-83
2024/02/14 07:36:54;;;;;;;1084.78;512.38;;;;;;;21.21;38.78;101233.69;5009638;28;20486;-84
2024/02/14 07:39:20;;;;;;;1084.80;517.65;;;;;;;21.18;38.86;101231.38;4989181;28;20501;-85
2024/02/14 07:41:46;;;;;;;1077.72;519.67;;;;;;;21.18;39.83;101247.25;5020149;28;20052;-86
2024/02/14 07:44:12;;;;;;;1064.63;514.38;;;;;;;21.13;40.14;101253.91;4995650;28;20049;-88
2024/02/14 07:46:38;;;;;;;1057.38;509.25;;;;;;;20.94;40.15;101238.53;5017886;28;20037;-88
2024/02/14 07:49:04;;;;;;;1056.70;506.85;;;;;;;21.01;39.90;101262.47;5012402;28;20112;-85
2024/02/14 07:51:36;;;;;;;1056.03;507.77;;;;;;;20.96;39.90;101255.03;5013690;28;20768;-90
2024/02/14 07:54:03;;;;;;;1057.93;507.65;;;;;;;21.03;40.05;101263.94;4986546;28;20490;-91
2024/02/14 07:56:29;;;;;;;1077.50;510.50;;;;;;;21.05;39.94;101269.88;5017094;28;20052;-89
2024/02/14 07:58:55;;;;;;;1076.03;506.63;;;;;;;21.04;39.69;101268.25;5021229;28;20034;-90
2024/02/14 08:01:20;;;;;;;1090.13;510.73;;;;;;;20.92;39.70;101245.81;5022946;28;20071;-89
2024/02/14 08:03:46;;;;;;;1092.25;513.35;;;;;;;20.96;39.77;101251.56;5016501;28;20041;-92
2024/02/14 08:06:12;;;;;;;1084.75;511.00;;;;;;;21.03;39.66;101265.78;5023605;28;20052;-90
2024/02/14 08:08:38;;;;;;;1094.07;517.00;;;;;;;21.05;39.83;101272.53;5017526;28;20049;-88
2024/02/14 08:11:04;;;;;;;1097.63;519.25;;;;;;;21.06;39.62;101281.31;5020382;28;20048;-88
2024/02/14 08:13:29;;;;;;;1100.05;518.65;;;;;;;21.04;39.63;101283.31;5022861;28;20048;-90
2024/02/14 08:15:55;;;;;;;1067.65;502.02;;;;;;;21.03;39.94;101281.66;5026213;28;20100;-89
2024/02/14 08:18:21;;;;;;;1082.05;508.80;;;;;;;20.89;40.02;101264.72;5018952;28;20045;-88
2024/02/14 08:20:46;;;;;;;1099.45;524.88;;;;;;;20.96;39.82;101276.22;5022091;28;20473;-87
2024/02/14 08:23:12;;;;;;;1100.68;525.80;;;;;;;21.02;39.70;101280.84;5004676;28;20049;-88
2024/02/14 08:25:37;;;;;;;1095.88;524.92;;;;;;;20.98;39.61;101273.41;5019864;28;20053;-93
2024/02/14 08:28:03;;;;;;;1111.63;531.35;;;;;;;21.00;39.66;101287.28;5018139;28;20034;-88
2024/02/14 08:30:29;;;;;;;1118.25;536.70;;;;;;;21.00;39.45;101282.81;5023130;28;20028;-85
2024/02/14 08:32:54;;;;;;;1122.80;537.42;;;;;;;21.00;39.91;101289.94;5015184;28;20635;-86
2024/02/14 08:35:21;;;;;;;1113.25;534.13;;;;;;;21.00;39.47;101279.34;5019588;28;20052;-87
2024/02/14 08:37:46;;;;;;;1117.60;536.28;;;;;;;20.95;39.55;101274.59;5003147;28;20040;-86
2024/02/14 08:40:12;;;;;;;1114.55;533.78;;;;;;;20.97;39.63;101283.16;5017446;28;20045;-86
2024/02/14 08:42:38;;;;;;;1134.15;540.80;;;;;;;21.04;39.48;101291.25;5016846;28;20362;-86
2024/02/14 08:45:04;;;;;;;1143.00;546.85;;;;;;;20.97;39.55;101272.56;5017593;28;20067;-86
2024/02/14 08:47:30;;;;;;;1148.82;548.03;;;;;;;21.00;39.80;101284.63;4999517;28;20129;-86
2024/02/14 08:49:56;;;;;;;1136.07;544.33;;;;;;;21.05;39.49;101291.06;5019375;28;20033;-86
2024/02/14 08:52:21;;;;;;;1147.03;549.35;;;;;;;21.04;39.80;101292.06;5023514;28;20647;-86
2024/02/14 08:54:47;;;;;;;1143.70;548.47;;;;;;;21.01;39.35;101284.50;5020734;28;20045;-86
2024/02/14 08:57:12;;;;;;;1143.43;547.80;;;;;;;20.98;39.44;101282.16;5024287;28;20048;-86
2024/02/14 08:59:38;;;;;;;1140.53;544.67;;;;;;;21.08;39.60;101292.53;5020040;28;20045;-86
2024/02/14 09:02:04;;;;;;;1146.53;548.85;;;;;;;20.96;39.47;101278.06;5013401;28;20088;-85
2024/02/14 09:04:29;;;;;;;1144.15;546.95;;;;;;;21.08;39.56;101301.31;5024325;28;20470;-85
2024/02/14 09:06:55;;;;;;;1159.82;558.30;;;;;;;21.08;39.52;101303.94;5025317;28;20045;-85
2024/02/14 09:09:20;;;;;;;1170.72;564.55;;;;;;;21.07;39.53;101304.97;5022667;28;20053;-85
2024/02/14 09:11:46;;;;;;;1156.60;555.33;;;;;;;21.05;39.63;101306.97;5019390;28;20060;-85
2024/02/14 09:14:12;;;;;;;1161.18;555.55;;;;;;;21.05;39.57;101314.91;5001703;28;20060;-85
2024/02/14 09:16:38;;;;;;;1158.55;555.72;;;;;;;21.08;39.61;101309.25;5023046;28;20088;-85
2024/02/14 09:19:07;;;;;;;1155.53;553.25;;;;;;;21.09;39.68;101315.38;5019579;28;20529;-85
2024/02/14 09:21:35;;;;;;;1149.05;550.85;;;;;;;21.32;38.90;101305.63;5018721;28;20046;-86
2024/02/14 09:24:01;;;;;;;1141.40;546.58;;;;;;;21.46;38.81;101296.06;5019680;28;20049;-85
2024/02/14 09:26:27;;;;;;;1144.55;551.28;;;;;;;21.55;38.62;101310.09;5016241;28;20112;-85
2024/02/14 09:28:52;;;;;;;1151.82;553.53;;;;;;;21.46;38.87;101316.44;5014576;28;20041;-85
2024/02/14 09:31:19;;;;;;;1162.80;558.15;;;;;;;21.30;38.97;101282.97;5005839;28;20037;-85
2024/02/14 09:33:49;;;;;;;1166.25;560.65;;;;;;;21.34;39.40;101311.56;5018844;28;20045;-85
2024/02/14 09:36:15;;;;;;;1165.13;563.55;;;;;;;21.13;39.57;101304.25;5020305;28;20049;-85
2024/02/14 09:38:42;;;;;;;1166.40;560.33;;;;;;;21.11;39.63;101308.06;5016586;28;20049;-85
2024/02/14 09:41:22;;;;;;;1180.50;566.10;;;;;;;21.17;39.51;101328.53;5019132;28;20036;-86
2024/02/14 09:43:48;;;;;;;1196.28;577.65;;;;;;;21.05;39.50;101308.78;5013590;28;20083;-85
2024/02/14 09:46:14;;;;;;;1213.63;586.67;;;;;;;21.21;39.74;101327.22;5018163;28;20026;-86
2024/02/14 09:48:44;;;;;;;1219.57;589.95;;;;;;;21.24;39.60;101328.69;5018149;28;20052;-86
2024/02/14 09:51:12;;;;;;;1217.28;587.78;;;;;;;21.26;39.39;101335.47;5017923;28;20037;-85
2024/02/14 09:53:39;;;;;;;1208.72;583.40;;;;;;;21.23;39.40;101329.69;5018748;28;20045;-85
2024/02/14 09:56:05;;;;;;;1197.55;577.85;;;;;;;21.17;39.54;101328.53;5019537;28;20036;-85
2024/02/14 09:58:31;;;;;;;1188.63;575.80;;;;;;;21.25;39.51;101331.19;5018953;28;20034;-85
2024/02/14 10:01:00;;;;;;;1177.03;566.33;;;;;;;21.25;39.65;101339.13;5020054;28;20065;-85
2024/02/14 10:03:26;;;;;;;1187.57;567.85;;;;;;;21.27;39.56;101345.06;5018990;28;20374;-85
2024/02/14 10:05:52;;;;;;;1209.63;577.40;;;;;;;21.20;39.44;101336.16;5020903;28;20741;-85
2024/02/14 10:08:18;;;;;;;1176.80;562.80;;;;;;;21.09;39.43;101334.72;5016963;28;20033;-85
2024/02/14 10:10:45;;;;;;;1192.45;570.55;;;;;;;21.22;39.68;101349.22;5018822;28;20048;-86
2024/02/14 10:13:11;;;;;;;1185.18;567.13;;;;;;;21.22;39.51;101362.47;5020619;28;20051;-84
2024/02/14 10:15:36;;;;;;;1199.78;576.83;;;;;;;21.21;39.57;101350.22;5019282;28;20049;-84
2024/02/14 10:18:03;;;;;;;1204.22;576.03;;;;;;;21.17;39.55;101354.19;5018103;28;20034;-85
2024/02/14 10:20:33;;;;;;;1192.60;571.45;;;;;;;21.12;39.58;101338.84;5017173;28;20510;-84
2024/02/14 10:23:03;;;;;;;1191.25;570.08;;;;;;;21.15;39.71;101350.91;5019439;28;20501;-84
2024/02/14 10:25:29;;;;;;;1149.53;553.58;;;;;;;21.16;39.65;101357.84;5013818;28;20125;-84
2024/02/14 10:27:55;;;;;;;1154.30;559.00;;;;;;;21.15;39.79;101353.56;5018348;28;20044;-84
2024/02/14 10:30:21;;;;;;;1162.47;560.58;;;;;;;21.16;39.66;101353.38;5023635;28;20358;-85
2024/02/14 10:32:50;;;;;;;1154.93;552.30;;;;;;;21.03;39.69;101335.44;5016615;28;20065;-85
2024/02/14 10:35:15;;;;;;;1233.88;599.80;;;;;;;21.15;39.68;101364.16;5023073;28;20037;-85
2024/02/14 10:37:42;;;;;;;1176.97;562.03;;;;;;;21.12;39.68;101365.31;5019076;28;20559;-84
2024/02/14 10:40:11;;;;;;;1184.57;568.42;;;;;;;21.13;39.58;101359.84;5013675;28;20077;-85
2024/02/14 10:42:37;;;;;;;1194.53;570.42;;;;;;;21.12;39.79;101360.03;5017661;28;20045;-85
2024/02/14 10:45:03;;;;;;;1173.10;558.88;;;;;;;21.11;39.93;101358.38;5020769;28;20033;-85
2024/02/14 10:47:35;;;;;;;1206.85;577.75;;;;;;;21.06;39.98;101348.31;5015789;28;20488;-85